sensor_id;sensor_type;location;lat;lon;timestamp;P1;durP1;ratioP1;P2;durP2;ratioP2
12921;SDS011;6528;48.086;16.282;2023-02-14T00:00:43;1.97;;;1.87;;
12921;SDS011;6528;48.086;16.282;2023-02-14T00:03:09;2.10;;;2.00;;
12921;SDS011;6528;48.086;16.282;2023-02-14T00:05:38;1.50;;;1.40;;
12921;SDS011;6528;48.086;16.282;2023-02-14T00:08:04;1.73;;;1.63;;
12921;SDS011;6528;48.086;16.282;2023-02-14T00:10:31;2.30;;;2.10;;
12921;SDS011;6528;48.086;16.282;2023-02-14T00:12:58;2.37;;;2.20;;
12921;SDS011;6528;48.086;16.282;2023-02-14T00:15:25;2.53;;;2.33;;
12921;SDS011;6528;48.086;16.282;2023-02-14T00:17:52;2.17;;;1.97;;
12921;SDS011;6528;48.086;16.282;2023-02-14T00:20:21;1.90;;;1.80;;
12921;SDS011;6528;48.086;16.282;2023-02-14T00:22:48;2.53;;;1.50;;
12921;SDS011;6528;48.086;16.282;2023-02-14T00:25:15;2.17;;;1.97;;
12921;SDS011;6528;48.086;16.282;2023-02-14T00:27:43;1.90;;;1.80;;
12921;SDS011;6528;48.086;16.282;2023-02-14T00:30:10;2.50;;;2.30;;
12921;SDS011;6528;48.086;16.282;2023-02-14T00:32:38;2.27;;;2.17;;
12921;SDS011;6528;48.086;16.282;2023-02-14T00:35:06;2.17;;;2.07;;
12921;SDS011;6528;48.086;16.282;2023-02-14T00:37:34;2.00;;;1.90;;
12921;SDS011;6528;48.086;16.282;2023-02-14T00:40:01;1.70;;;1.60;;
12921;SDS011;6528;48.086;16.282;2023-02-14T00:42:29;1.80;;;1.70;;
12921;SDS011;6528;48.086;16.282;2023-02-14T00:44:55;2.03;;;1.80;;
12921;SDS011;6528;48.086;16.282;2023-02-14T00:47:22;2.00;;;1.90;;
12921;SDS011;6528;48.086;16.282;2023-02-14T00:49:49;1.83;;;1.73;;
12921;SDS011;6528;48.086;16.282;2023-02-14T00:52:16;2.20;;;2.10;;
12921;SDS011;6528;48.086;16.282;2023-02-14T00:54:43;1.90;;;1.80;;
12921;SDS011;6528;48.086;16.282;2023-02-14T00:57:09;1.73;;;1.63;;
12921;SDS011;6528;48.086;16.282;2023-02-14T00:59:36;1.97;;;1.77;;
12921;SDS011;6528;48.086;16.282;2023-02-14T01:02:03;1.60;;;1.50;;
12921;SDS011;6528;48.086;16.282;2023-02-14T01:04:30;2.13;;;2.03;;
12921;SDS011;6528;48.086;16.282;2023-02-14T01:06:56;1.87;;;1.77;;
12921;SDS011;6528;48.086;16.282;2023-02-14T01:09:23;1.90;;;1.80;;
12921;SDS011;6528;48.086;16.282;2023-02-14T01:11:50;1.80;;;1.70;;
12921;SDS011;6528;48.086;16.282;2023-02-14T01:14:16;1.90;;;1.80;;
12921;SDS011;6528;48.086;16.282;2023-02-14T01:16:43;1.90;;;1.80;;
12921;SDS011;6528;48.086;16.282;2023-02-14T01:19:10;1.73;;;1.63;;
12921;SDS011;6528;48.086;16.282;2023-02-14T01:21:37;2.13;;;1.93;;
12921;SDS011;6528;48.086;16.282;2023-02-14T01:24:05;1.53;;;1.43;;
12921;SDS011;6528;48.086;16.282;2023-02-14T01:26:33;2.10;;;2.00;;
12921;SDS011;6528;48.086;16.282;2023-02-14T01:29:00;2.07;;;1.97;;
12921;SDS011;6528;48.086;16.282;2023-02-14T01:31:29;1.77;;;1.67;;
12921;SDS011;6528;48.086;16.282;2023-02-14T01:33:58;1.70;;;1.60;;
12921;SDS011;6528;48.086;16.282;2023-02-14T01:36:31;2.13;;;2.03;;
12921;SDS011;6528;48.086;16.282;2023-02-14T01:39:03;2.17;;;1.97;;
12921;SDS011;6528;48.086;16.282;2023-02-14T01:41:32;1.60;;;1.57;;
12921;SDS011;6528;48.086;16.282;2023-02-14T01:46:30;1.80;;;1.70;;
12921;SDS011;6528;48.086;16.282;2023-02-14T01:49:01;1.97;;;1.87;;
12921;SDS011;6528;48.086;16.282;2023-02-14T01:51:35;1.73;;;1.63;;
12921;SDS011;6528;48.086;16.282;2023-02-14T01:54:05;1.93;;;1.83;;
12921;SDS011;6528;48.086;16.282;2023-02-14T01:56:34;1.77;;;1.67;;
12921;SDS011;6528;48.086;16.282;2023-02-14T01:59:06;2.13;;;2.03;;
12921;SDS011;6528;48.086;16.282;2023-02-14T02:01:36;1.70;;;1.60;;
12921;SDS011;6528;48.086;16.282;2023-02-14T02:04:06;1.63;;;1.53;;
12921;SDS011;6528;48.086;16.282;2023-02-14T02:06:37;2.07;;;1.90;;
12921;SDS011;6528;48.086;16.282;2023-02-14T02:09:21;2.00;;;1.90;;
12921;SDS011;6528;48.086;16.282;2023-02-14T02:11:56;1.70;;;1.60;;
12921;SDS011;6528;48.086;16.282;2023-02-14T02:14:23;2.13;;;1.70;;
12921;SDS011;6528;48.086;16.282;2023-02-14T02:16:55;2.00;;;1.90;;
12921;SDS011;6528;48.086;16.282;2023-02-14T02:32:48;1.90;;;1.80;;
12921;SDS011;6528;48.086;16.282;2023-02-14T02:38:50;1.60;;;1.50;;
12921;SDS011;6528;48.086;16.282;2023-02-14T02:41:43;1.30;;;1.30;;
12921;SDS011;6528;48.086;16.282;2023-02-14T02:50:26;1.90;;;1.80;;
12921;SDS011;6528;48.086;16.282;2023-02-14T02:53:26;1.70;;;1.60;;
12921;SDS011;6528;48.086;16.282;2023-02-14T02:56:18;1.90;;;1.80;;
12921;SDS011;6528;48.086;16.282;2023-02-14T03:01:56;1.77;;;1.67;;
12921;SDS011;6528;48.086;16.282;2023-02-14T03:04:26;1.77;;;1.57;;
12921;SDS011;6528;48.086;16.282;2023-02-14T03:07:12;1.80;;;1.70;;
12921;SDS011;6528;48.086;16.282;2023-02-14T03:09:58;1.50;;;1.40;;
12921;SDS011;6528;48.086;16.282;2023-02-14T03:15:06;1.67;;;1.57;;
12921;SDS011;6528;48.086;16.282;2023-02-14T03:18:17;1.60;;;1.50;;
12921;SDS011;6528;48.086;16.282;2023-02-14T03:26:37;2.10;;;2.00;;
12921;SDS011;6528;48.086;16.282;2023-02-14T03:29:18;1.40;;;1.40;;
12921;SDS011;6528;48.086;16.282;2023-02-14T03:36:58;1.60;;;1.50;;
12921;SDS011;6528;48.086;16.282;2023-02-14T03:39:37;1.73;;;1.63;;
12921;SDS011;6528;48.086;16.282;2023-02-14T03:42:06;1.60;;;1.50;;
12921;SDS011;6528;48.086;16.282;2023-02-14T03:44:42;1.77;;;1.67;;
12921;SDS011;6528;48.086;16.282;2023-02-14T03:47:11;2.00;;;1.87;;
12921;SDS011;6528;48.086;16.282;2023-02-14T03:49:43;1.60;;;1.50;;
12921;SDS011;6528;48.086;16.282;2023-02-14T03:52:13;1.93;;;1.83;;
12921;SDS011;6528;48.086;16.282;2023-02-14T03:54:41;1.83;;;1.73;;
12921;SDS011;6528;48.086;16.282;2023-02-14T03:57:54;1.80;;;1.70;;
12921;SDS011;6528;48.086;16.282;2023-02-14T04:00:07;2.10;;;2.00;;
12921;SDS011;6528;48.086;16.282;2023-02-14T04:02:35;1.60;;;1.50;;
12921;SDS011;6528;48.086;16.282;2023-02-14T04:05:14;1.77;;;1.67;;
12921;SDS011;6528;48.086;16.282;2023-02-14T04:07:48;1.90;;;1.80;;
12921;SDS011;6528;48.086;16.282;2023-02-14T04:10:17;1.87;;;1.77;;
12921;SDS011;6528;48.086;16.282;2023-02-14T04:12:45;2.20;;;2.10;;
12921;SDS011;6528;48.086;16.282;2023-02-14T04:15:13;2.20;;;2.10;;
12921;SDS011;6528;48.086;16.282;2023-02-14T04:17:40;1.50;;;1.40;;
12921;SDS011;6528;48.086;16.282;2023-02-14T04:20:26;1.47;;;1.47;;
12921;SDS011;6528;48.086;16.282;2023-02-14T04:22:54;1.40;;;1.30;;
12921;SDS011;6528;48.086;16.282;2023-02-14T04:25:20;2.20;;;2.10;;
12921;SDS011;6528;48.086;16.282;2023-02-14T04:27:48;2.07;;;1.97;;
12921;SDS011;6528;48.086;16.282;2023-02-14T04:30:15;2.00;;;1.90;;
12921;SDS011;6528;48.086;16.282;2023-02-14T04:32:46;1.90;;;1.80;;
12921;SDS011;6528;48.086;16.282;2023-02-14T04:35:14;1.83;;;1.60;;
12921;SDS011;6528;48.086;16.282;2023-02-14T04:37:41;1.90;;;1.80;;
12921;SDS011;6528;48.086;16.282;2023-02-14T04:40:08;2.13;;;2.03;;
12921;SDS011;6528;48.086;16.282;2023-02-14T04:42:35;2.00;;;1.90;;
12921;SDS011;6528;48.086;16.282;2023-02-14T04:45:02;1.93;;;1.83;;
12921;SDS011;6528;48.086;16.282;2023-02-14T04:47:29;1.97;;;1.87;;
12921;SDS011;6528;48.086;16.282;2023-02-14T04:49:56;2.00;;;1.90;;
12921;SDS011;6528;48.086;16.282;2023-02-14T04:52:23;2.50;;;2.40;;
12921;SDS011;6528;48.086;16.282;2023-02-14T04:54:50;1.90;;;1.80;;
12921;SDS011;6528;48.086;16.282;2023-02-14T04:57:17;2.40;;;2.20;;
12921;SDS011;6528;48.086;16.282;2023-02-14T04:59:43;2.30;;;2.10;;
12921;SDS011;6528;48.086;16.282;2023-02-14T05:02:10;2.73;;;2.53;;
12921;SDS011;6528;48.086;16.282;2023-02-14T05:04:37;1.70;;;1.60;;
12921;SDS011;6528;48.086;16.282;2023-02-14T05:07:04;1.47;;;1.43;;
12921;SDS011;6528;48.086;16.282;2023-02-14T05:09:30;1.90;;;1.80;;
12921;SDS011;6528;48.086;16.282;2023-02-14T05:11:57;1.97;;;1.80;;
12921;SDS011;6528;48.086;16.282;2023-02-14T05:14:24;2.10;;;2.00;;
12921;SDS011;6528;48.086;16.282;2023-02-14T05:16:51;2.10;;;2.00;;
12921;SDS011;6528;48.086;16.282;2023-02-14T05:19:17;2.17;;;2.07;;
12921;SDS011;6528;48.086;16.282;2023-02-14T05:21:44;2.03;;;1.93;;
12921;SDS011;6528;48.086;16.282;2023-02-14T05:24:12;2.30;;;2.20;;
12921;SDS011;6528;48.086;16.282;2023-02-14T05:26:38;2.40;;;2.20;;
12921;SDS011;6528;48.086;16.282;2023-02-14T05:29:06;2.43;;;2.23;;
12921;SDS011;6528;48.086;16.282;2023-02-14T05:31:33;2.07;;;1.90;;
12921;SDS011;6528;48.086;16.282;2023-02-14T05:34:00;2.40;;;2.20;;
12921;SDS011;6528;48.086;16.282;2023-02-14T05:36:26;2.47;;;2.30;;
12921;SDS011;6528;48.086;16.282;2023-02-14T05:38:53;2.67;;;2.47;;
12921;SDS011;6528;48.086;16.282;2023-02-14T05:41:20;2.93;;;2.63;;
12921;SDS011;6528;48.086;16.282;2023-02-14T05:43:47;2.77;;;2.57;;
12921;SDS011;6528;48.086;16.282;2023-02-14T05:46:13;2.47;;;2.30;;
12921;SDS011;6528;48.086;16.282;2023-02-14T05:48:40;2.37;;;2.23;;
12921;SDS011;6528;48.086;16.282;2023-02-14T05:51:08;2.60;;;2.40;;
12921;SDS011;6528;48.086;16.282;2023-02-14T05:53:35;2.30;;;2.10;;
12921;SDS011;6528;48.086;16.282;2023-02-14T05:56:03;2.47;;;2.27;;
12921;SDS011;6528;48.086;16.282;2023-02-14T05:58:30;2.40;;;2.23;;
12921;SDS011;6528;48.086;16.282;2023-02-14T06:00:57;2.57;;;2.40;;
12921;SDS011;6528;48.086;16.282;2023-02-14T06:03:25;2.90;;;2.70;;
12921;SDS011;6528;48.086;16.282;2023-02-14T06:05:52;2.50;;;2.30;;
12921;SDS011;6528;48.086;16.282;2023-02-14T06:08:19;2.50;;;2.30;;
12921;SDS011;6528;48.086;16.282;2023-02-14T06:10:46;2.37;;;2.17;;
12921;SDS011;6528;48.086;16.282;2023-02-14T06:13:13;2.63;;;2.43;;
12921;SDS011;6528;48.086;16.282;2023-02-14T06:15:39;2.73;;;2.53;;
12921;SDS011;6528;48.086;16.282;2023-02-14T06:18:06;2.50;;;2.30;;
12921;SDS011;6528;48.086;16.282;2023-02-14T06:20:33;2.17;;;2.07;;
12921;SDS011;6528;48.086;16.282;2023-02-14T06:23:00;2.50;;;2.30;;
12921;SDS011;6528;48.086;16.282;2023-02-14T06:25:27;2.80;;;2.60;;
12921;SDS011;6528;48.086;16.282;2023-02-14T06:27:54;3.20;;;2.60;;
12921;SDS011;6528;48.086;16.282;2023-02-14T06:30:23;2.80;;;2.60;;
12921;SDS011;6528;48.086;16.282;2023-02-14T06:32:50;2.50;;;2.30;;
12921;SDS011;6528;48.086;16.282;2023-02-14T06:35:17;3.00;;;2.80;;
12921;SDS011;6528;48.086;16.282;2023-02-14T06:37:44;2.63;;;2.43;;
12921;SDS011;6528;48.086;16.282;2023-02-14T06:40:11;2.80;;;2.60;;
12921;SDS011;6528;48.086;16.282;2023-02-14T06:42:39;2.53;;;2.33;;
12921;SDS011;6528;48.086;16.282;2023-02-14T06:45:06;2.33;;;2.23;;
12921;SDS011;6528;48.086;16.282;2023-02-14T06:47:33;3.53;;;2.97;;
12921;SDS011;6528;48.086;16.282;2023-02-14T06:50:00;2.93;;;2.73;;
12921;SDS011;6528;48.086;16.282;2023-02-14T06:52:30;3.47;;;3.17;;
12921;SDS011;6528;48.086;16.282;2023-02-14T06:54:58;3.50;;;3.20;;
12921;SDS011;6528;48.086;16.282;2023-02-14T06:57:24;4.30;;;3.90;;
12921;SDS011;6528;48.086;16.282;2023-02-14T06:59:51;5.37;;;4.97;;
12921;SDS011;6528;48.086;16.282;2023-02-14T07:02:18;6.90;;;6.03;;
12921;SDS011;6528;48.086;16.282;2023-02-14T07:04:47;7.33;;;6.30;;
12921;SDS011;6528;48.086;16.282;2023-02-14T07:07:14;8.27;;;6.07;;
12921;SDS011;6528;48.086;16.282;2023-02-14T07:09:40;6.47;;;5.73;;
12921;SDS011;6528;48.086;16.282;2023-02-14T07:12:07;6.60;;;5.90;;
12921;SDS011;6528;48.086;16.282;2023-02-14T07:14:34;6.90;;;6.30;;
12921;SDS011;6528;48.086;16.282;2023-02-14T07:17:01;6.90;;;5.57;;
12921;SDS011;6528;48.086;16.282;2023-02-14T07:19:27;6.33;;;5.73;;
12921;SDS011;6528;48.086;16.282;2023-02-14T07:21:54;6.57;;;5.73;;
12921;SDS011;6528;48.086;16.282;2023-02-14T07:24:21;8.40;;;5.93;;
12921;SDS011;6528;48.086;16.282;2023-02-14T07:26:48;7.83;;;6.10;;
12921;SDS011;6528;48.086;16.282;2023-02-14T07:29:14;8.30;;;6.20;;
12921;SDS011;6528;48.086;16.282;2023-02-14T07:31:41;7.03;;;6.33;;
12921;SDS011;6528;48.086;16.282;2023-02-14T07:34:08;6.87;;;5.83;;
12921;SDS011;6528;48.086;16.282;2023-02-14T07:36:36;7.50;;;6.80;;
12921;SDS011;6528;48.086;16.282;2023-02-14T07:39:04;6.97;;;6.27;;
12921;SDS011;6528;48.086;16.282;2023-02-14T07:41:30;6.47;;;5.93;;
12921;SDS011;6528;48.086;16.282;2023-02-14T07:43:57;8.57;;;7.00;;
12921;SDS011;6528;48.086;16.282;2023-02-14T07:46:24;6.67;;;5.90;;
12921;SDS011;6528;48.086;16.282;2023-02-14T07:48:51;9.00;;;6.43;;
12921;SDS011;6528;48.086;16.282;2023-02-14T07:51:18;7.03;;;6.43;;
12921;SDS011;6528;48.086;16.282;2023-02-14T07:53:44;7.77;;;6.73;;
12921;SDS011;6528;48.086;16.282;2023-02-14T07:56:11;7.77;;;6.97;;
12921;SDS011;6528;48.086;16.282;2023-02-14T07:58:38;6.83;;;5.93;;
12921;SDS011;6528;48.086;16.282;2023-02-14T08:01:04;6.27;;;5.67;;
12921;SDS011;6528;48.086;16.282;2023-02-14T08:03:31;8.30;;;7.23;;
12921;SDS011;6528;48.086;16.282;2023-02-14T08:05:58;7.73;;;6.67;;
12921;SDS011;6528;48.086;16.282;2023-02-14T08:08:25;7.40;;;6.67;;
12921;SDS011;6528;48.086;16.282;2023-02-14T08:10:53;7.13;;;6.50;;
12921;SDS011;6528;48.086;16.282;2023-02-14T08:13:20;7.70;;;6.20;;
12921;SDS011;6528;48.086;16.282;2023-02-14T08:15:47;7.70;;;6.20;;
12921;SDS011;6528;48.086;16.282;2023-02-14T08:18:30;7.17;;;6.50;;
12921;SDS011;6528;48.086;16.282;2023-02-14T08:21:05;7.33;;;6.57;;
12921;SDS011;6528;48.086;16.282;2023-02-14T08:23:33;6.80;;;6.20;;
12921;SDS011;6528;48.086;16.282;2023-02-14T08:26:02;11.00;;;6.93;;
12921;SDS011;6528;48.086;16.282;2023-02-14T08:28:29;8.30;;;6.93;;
12921;SDS011;6528;48.086;16.282;2023-02-14T08:30:58;7.83;;;7.13;;
12921;SDS011;6528;48.086;16.282;2023-02-14T08:33:25;7.90;;;6.90;;
12921;SDS011;6528;48.086;16.282;2023-02-14T08:35:52;8.93;;;7.70;;
12921;SDS011;6528;48.086;16.282;2023-02-14T08:38:19;8.43;;;7.57;;
12921;SDS011;6528;48.086;16.282;2023-02-14T08:40:46;7.30;;;6.60;;
12921;SDS011;6528;48.086;16.282;2023-02-14T08:43:13;8.13;;;7.33;;
12921;SDS011;6528;48.086;16.282;2023-02-14T08:45:40;6.93;;;6.33;;
12921;SDS011;6528;48.086;16.282;2023-02-14T08:48:07;7.47;;;6.70;;
12921;SDS011;6528;48.086;16.282;2023-02-14T08:50:36;8.80;;;7.90;;
12921;SDS011;6528;48.086;16.282;2023-02-14T08:53:07;9.03;;;7.40;;
12921;SDS011;6528;48.086;16.282;2023-02-14T08:55:34;7.77;;;6.57;;
12921;SDS011;6528;48.086;16.282;2023-02-14T08:58:01;8.23;;;7.10;;
12921;SDS011;6528;48.086;16.282;2023-02-14T09:00:29;8.97;;;8.07;;
12921;SDS011;6528;48.086;16.282;2023-02-14T09:02:56;7.83;;;7.03;;
12921;SDS011;6528;48.086;16.282;2023-02-14T09:05:23;8.20;;;7.23;;
12921;SDS011;6528;48.086;16.282;2023-02-14T09:07:51;8.00;;;7.20;;
12921;SDS011;6528;48.086;16.282;2023-02-14T09:10:21;8.50;;;7.40;;
12921;SDS011;6528;48.086;16.282;2023-02-14T09:12:49;9.30;;;8.47;;
12921;SDS011;6528;48.086;16.282;2023-02-14T09:15:15;10.60;;;7.50;;
12921;SDS011;6528;48.086;16.282;2023-02-14T09:17:42;8.73;;;7.93;;
12921;SDS011;6528;48.086;16.282;2023-02-14T09:20:10;8.40;;;7.60;;
12921;SDS011;6528;48.086;16.282;2023-02-14T09:22:37;9.63;;;8.57;;
12921;SDS011;6528;48.086;16.282;2023-02-14T09:25:04;8.50;;;7.70;;
12921;SDS011;6528;48.086;16.282;2023-02-14T09:27:31;9.03;;;8.00;;
12921;SDS011;6528;48.086;16.282;2023-02-14T09:29:58;9.63;;;8.33;;
12921;SDS011;6528;48.086;16.282;2023-02-14T09:32:25;8.23;;;7.47;;
12921;SDS011;6528;48.086;16.282;2023-02-14T09:34:54;8.47;;;7.67;;
12921;SDS011;6528;48.086;16.282;2023-02-14T09:37:21;8.80;;;7.90;;
12921;SDS011;6528;48.086;16.282;2023-02-14T09:40:06;9.20;;;8.30;;
12921;SDS011;6528;48.086;16.282;2023-02-14T09:42:39;8.57;;;7.77;;
12921;SDS011;6528;48.086;16.282;2023-02-14T09:45:13;7.67;;;6.97;;
12921;SDS011;6528;48.086;16.282;2023-02-14T09:51:18;8.80;;;7.93;;
12921;SDS011;6528;48.086;16.282;2023-02-14T09:53:46;8.77;;;7.80;;
12921;SDS011;6528;48.086;16.282;2023-02-14T10:05:17;9.03;;;8.10;;
12921;SDS011;6528;48.086;16.282;2023-02-14T10:08:00;9.07;;;8.07;;
12921;SDS011;6528;48.086;16.282;2023-02-14T10:10:44;9.80;;;8.70;;
12921;SDS011;6528;48.086;16.282;2023-02-14T10:15:58;7.47;;;6.77;;
12921;SDS011;6528;48.086;16.282;2023-02-14T10:18:37;8.10;;;7.33;;
12921;SDS011;6528;48.086;16.282;2023-02-14T10:21:10;8.97;;;8.07;;
12921;SDS011;6528;48.086;16.282;2023-02-14T10:23:50;8.50;;;7.53;;
12921;SDS011;6528;48.086;16.282;2023-02-14T10:26:35;12.50;;;7.93;;
12921;SDS011;6528;48.086;16.282;2023-02-14T10:29:05;8.00;;;7.30;;
12921;SDS011;6528;48.086;16.282;2023-02-14T10:34:14;9.23;;;8.37;;
12921;SDS011;6528;48.086;16.282;2023-02-14T10:50:36;8.13;;;7.33;;
12921;SDS011;6528;48.086;16.282;2023-02-14T10:53:16;9.80;;;8.90;;
12921;SDS011;6528;48.086;16.282;2023-02-14T10:55:52;8.83;;;7.93;;
12921;SDS011;6528;48.086;16.282;2023-02-14T10:58:28;8.00;;;7.30;;
12921;SDS011;6528;48.086;16.282;2023-02-14T11:01:04;8.37;;;7.57;;
12921;SDS011;6528;48.086;16.282;2023-02-14T11:03:38;8.17;;;7.30;;
12921;SDS011;6528;48.086;16.282;2023-02-14T11:06:09;8.07;;;7.27;;
12921;SDS011;6528;48.086;16.282;2023-02-14T11:08:37;8.20;;;7.40;;
12921;SDS011;6528;48.086;16.282;2023-02-14T11:16:51;9.27;;;8.40;;
12921;SDS011;6528;48.086;16.282;2023-02-14T11:21:49;8.33;;;7.53;;
12921;SDS011;6528;48.086;16.282;2023-02-14T11:24:37;8.33;;;7.53;;
12921;SDS011;6528;48.086;16.282;2023-02-14T11:32:07;8.40;;;7.60;;
12921;SDS011;6528;48.086;16.282;2023-02-14T11:34:36;8.60;;;6.80;;
12921;SDS011;6528;48.086;16.282;2023-02-14T11:39:47;7.43;;;6.73;;
12921;SDS011;6528;48.086;16.282;2023-02-14T11:42:31;8.37;;;7.57;;
12921;SDS011;6528;48.086;16.282;2023-02-14T11:45:25;8.43;;;6.80;;
12921;SDS011;6528;48.086;16.282;2023-02-14T11:53:53;7.80;;;7.10;;
12921;SDS011;6528;48.086;16.282;2023-02-14T11:56:40;8.37;;;7.43;;
12921;SDS011;6528;48.086;16.282;2023-02-14T11:59:09;8.63;;;7.03;;
12921;SDS011;6528;48.086;16.282;2023-02-14T12:01:37;7.93;;;7.20;;
12921;SDS011;6528;48.086;16.282;2023-02-14T12:04:05;8.77;;;7.93;;
12921;SDS011;6528;48.086;16.282;2023-02-14T12:06:40;8.17;;;7.37;;
12921;SDS011;6528;48.086;16.282;2023-02-14T12:11:55;8.37;;;7.27;;
12921;SDS011;6528;48.086;16.282;2023-02-14T12:14:24;8.10;;;7.30;;
12921;SDS011;6528;48.086;16.282;2023-02-14T12:19:48;7.60;;;6.80;;
12921;SDS011;6528;48.086;16.282;2023-02-14T12:22:20;7.87;;;7.17;;
12921;SDS011;6528;48.086;16.282;2023-02-14T12:25:30;8.30;;;7.50;;
12921;SDS011;6528;48.086;16.282;2023-02-14T12:31:10;8.20;;;7.50;;
12921;SDS011;6528;48.086;16.282;2023-02-14T12:33:38;8.07;;;7.37;;
12921;SDS011;6528;48.086;16.282;2023-02-14T12:36:08;7.40;;;6.60;;
12921;SDS011;6528;48.086;16.282;2023-02-14T12:38:52;8.03;;;7.33;;
12921;SDS011;6528;48.086;16.282;2023-02-14T12:41:35;7.50;;;6.80;;
12921;SDS011;6528;48.086;16.282;2023-02-14T12:52:47;7.73;;;7.00;;
12921;SDS011;6528;48.086;16.282;2023-02-14T12:55:27;7.67;;;6.87;;
12921;SDS011;6528;48.086;16.282;2023-02-14T12:58:30;8.33;;;7.53;;
12921;SDS011;6528;48.086;16.282;2023-02-14T13:07:07;7.30;;;6.60;;
12921;SDS011;6528;48.086;16.282;2023-02-14T13:09:50;7.40;;;6.70;;
12921;SDS011;6528;48.086;16.282;2023-02-14T13:12:36;6.73;;;6.13;;
12921;SDS011;6528;48.086;16.282;2023-02-14T13:17:59;7.07;;;6.57;;
12921;SDS011;6528;48.086;16.282;2023-02-14T13:23:17;7.07;;;6.37;;
12921;SDS011;6528;48.086;16.282;2023-02-14T13:25:55;7.50;;;6.83;;
12921;SDS011;6528;48.086;16.282;2023-02-14T13:28:49;7.37;;;6.30;;
12921;SDS011;6528;48.086;16.282;2023-02-14T13:31:20;7.40;;;6.70;;
12921;SDS011;6528;48.086;16.282;2023-02-14T13:33:49;6.93;;;6.33;;
12921;SDS011;6528;48.086;16.282;2023-02-14T13:36:19;6.87;;;6.27;;
12921;SDS011;6528;48.086;16.282;2023-02-14T13:38:50;6.63;;;6.10;;
12921;SDS011;6528;48.086;16.282;2023-02-14T13:41:20;7.37;;;6.77;;
12921;SDS011;6528;48.086;16.282;2023-02-14T13:43:49;7.23;;;6.60;;
12921;SDS011;6528;48.086;16.282;2023-02-14T13:51:56;7.43;;;6.43;;
12921;SDS011;6528;48.086;16.282;2023-02-14T13:57:01;6.60;;;6.00;;
12921;SDS011;6528;48.086;16.282;2023-02-14T14:10:47;6.33;;;5.80;;
12921;SDS011;6528;48.086;16.282;2023-02-14T14:19:00;7.37;;;6.70;;
12921;SDS011;6528;48.086;16.282;2023-02-14T14:25:12;6.63;;;6.10;;
12921;SDS011;6528;48.086;16.282;2023-02-14T14:27:26;6.80;;;6.20;;
12921;SDS011;6528;48.086;16.282;2023-02-14T14:30:06;7.03;;;6.33;;
12921;SDS011;6528;48.086;16.282;2023-02-14T14:32:43;5.97;;;5.47;;
12921;SDS011;6528;48.086;16.282;2023-02-14T14:35:17;5.83;;;5.43;;
12921;SDS011;6528;48.086;16.282;2023-02-14T14:40:27;7.07;;;6.37;;
12921;SDS011;6528;48.086;16.282;2023-02-14T14:42:56;6.00;;;5.50;;
12921;SDS011;6528;48.086;16.282;2023-02-14T14:45:30;6.50;;;5.90;;
12921;SDS011;6528;48.086;16.282;2023-02-14T14:47:58;6.77;;;6.20;;
12921;SDS011;6528;48.086;16.282;2023-02-14T14:50:29;6.10;;;5.60;;
12921;SDS011;6528;48.086;16.282;2023-02-14T14:53:02;6.23;;;5.73;;
12921;SDS011;6528;48.086;16.282;2023-02-14T14:55:35;6.97;;;6.37;;
12921;SDS011;6528;48.086;16.282;2023-02-14T14:58:05;6.30;;;5.70;;
12921;SDS011;6528;48.086;16.282;2023-02-14T15:00:52;6.97;;;6.30;;
12921;SDS011;6528;48.086;16.282;2023-02-14T15:03:20;7.40;;;6.70;;
12921;SDS011;6528;48.086;16.282;2023-02-14T15:05:50;6.00;;;5.50;;
12921;SDS011;6528;48.086;16.282;2023-02-14T15:08:33;7.10;;;6.50;;
12921;SDS011;6528;48.086;16.282;2023-02-14T15:13:40;6.77;;;6.07;;
12921;SDS011;6528;48.086;16.282;2023-02-14T15:16:27;7.97;;;7.27;;
12921;SDS011;6528;48.086;16.282;2023-02-14T15:18:58;7.53;;;6.87;;
12921;SDS011;6528;48.086;16.282;2023-02-14T15:21:32;8.20;;;7.50;;
12921;SDS011;6528;48.086;16.282;2023-02-14T15:23:59;8.53;;;7.83;;
12921;SDS011;6528;48.086;16.282;2023-02-14T15:26:31;8.10;;;7.43;;
12921;SDS011;6528;48.086;16.282;2023-02-14T15:29:02;8.67;;;7.93;;
12921;SDS011;6528;48.086;16.282;2023-02-14T15:31:32;7.37;;;6.77;;
12921;SDS011;6528;48.086;16.282;2023-02-14T15:34:02;8.90;;;8.10;;
12921;SDS011;6528;48.086;16.282;2023-02-14T15:36:30;9.10;;;8.30;;
12921;SDS011;6528;48.086;16.282;2023-02-14T15:38:59;8.50;;;7.80;;
12921;SDS011;6528;48.086;16.282;2023-02-14T15:41:29;8.20;;;7.50;;
12921;SDS011;6528;48.086;16.282;2023-02-14T15:43:56;8.60;;;7.80;;
12921;SDS011;6528;48.086;16.282;2023-02-14T15:48:54;9.53;;;8.73;;
12921;SDS011;6528;48.086;16.282;2023-02-14T15:51:27;9.87;;;8.97;;
12921;SDS011;6528;48.086;16.282;2023-02-14T15:53:58;9.37;;;8.53;;
12921;SDS011;6528;48.086;16.282;2023-02-14T15:56:32;10.20;;;9.30;;
12921;SDS011;6528;48.086;16.282;2023-02-14T15:59:18;9.80;;;8.80;;
12921;SDS011;6528;48.086;16.282;2023-02-14T16:01:55;9.87;;;8.97;;
12921;SDS011;6528;48.086;16.282;2023-02-14T16:04:40;9.80;;;8.90;;
12921;SDS011;6528;48.086;16.282;2023-02-14T16:15:35;8.53;;;7.73;;
12921;SDS011;6528;48.086;16.282;2023-02-14T16:18:14;8.83;;;7.93;;
12921;SDS011;6528;48.086;16.282;2023-02-14T16:21:08;8.67;;;7.97;;
12921;SDS011;6528;48.086;16.282;2023-02-14T16:24:31;8.40;;;7.60;;
12921;SDS011;6528;48.086;16.282;2023-02-14T16:26:33;8.63;;;7.83;;
12921;SDS011;6528;48.086;16.282;2023-02-14T16:29:01;8.50;;;7.80;;
12921;SDS011;6528;48.086;16.282;2023-02-14T16:31:29;8.40;;;7.70;;
12921;SDS011;6528;48.086;16.282;2023-02-14T16:33:57;7.90;;;7.20;;
12921;SDS011;6528;48.086;16.282;2023-02-14T16:36:30;7.90;;;7.20;;
12921;SDS011;6528;48.086;16.282;2023-02-14T16:39:02;7.47;;;6.67;;
12921;SDS011;6528;48.086;16.282;2023-02-14T16:41:30;7.93;;;7.30;;
12921;SDS011;6528;48.086;16.282;2023-02-14T16:43:59;8.07;;;7.37;;
12921;SDS011;6528;48.086;16.282;2023-02-14T16:46:30;8.10;;;7.40;;
12921;SDS011;6528;48.086;16.282;2023-02-14T16:49:00;8.23;;;7.43;;
12921;SDS011;6528;48.086;16.282;2023-02-14T16:51:27;7.23;;;6.57;;
12921;SDS011;6528;48.086;16.282;2023-02-14T16:53:57;7.67;;;7.07;;
12921;SDS011;6528;48.086;16.282;2023-02-14T16:56:39;7.57;;;6.87;;
12921;SDS011;6528;48.086;16.282;2023-02-14T16:59:09;8.17;;;7.37;;
12921;SDS011;6528;48.086;16.282;2023-02-14T17:01:36;8.23;;;7.50;;
12921;SDS011;6528;48.086;16.282;2023-02-14T17:04:03;8.83;;;8.10;;
12921;SDS011;6528;48.086;16.282;2023-02-14T17:06:30;7.07;;;6.40;;
12921;SDS011;6528;48.086;16.282;2023-02-14T17:09:02;7.30;;;6.70;;
12921;SDS011;6528;48.086;16.282;2023-02-14T17:11:32;7.57;;;6.97;;
12921;SDS011;6528;48.086;16.282;2023-02-14T17:14:02;6.73;;;6.20;;
12921;SDS011;6528;48.086;16.282;2023-02-14T17:16:30;7.17;;;6.57;;
12921;SDS011;6528;48.086;16.282;2023-02-14T17:18:57;6.10;;;5.60;;
12921;SDS011;6528;48.086;16.282;2023-02-14T17:21:27;6.73;;;6.23;;
12921;SDS011;6528;48.086;16.282;2023-02-14T17:23:54;6.50;;;5.90;;
12921;SDS011;6528;48.086;16.282;2023-02-14T17:26:22;7.00;;;6.40;;
12921;SDS011;6528;48.086;16.282;2023-02-14T17:28:49;7.87;;;7.17;;
12921;SDS011;6528;48.086;16.282;2023-02-14T17:31:15;6.97;;;6.37;;
12921;SDS011;6528;48.086;16.282;2023-02-14T17:33:43;6.40;;;5.90;;
12921;SDS011;6528;48.086;16.282;2023-02-14T17:36:10;6.97;;;6.37;;
12921;SDS011;6528;48.086;16.282;2023-02-14T17:38:39;6.23;;;5.73;;
12921;SDS011;6528;48.086;16.282;2023-02-14T17:41:09;6.97;;;6.47;;
12921;SDS011;6528;48.086;16.282;2023-02-14T17:43:54;8.40;;;7.60;;
12921;SDS011;6528;48.086;16.282;2023-02-14T17:46:28;6.97;;;6.40;;
12921;SDS011;6528;48.086;16.282;2023-02-14T17:48:56;6.70;;;6.20;;
12921;SDS011;6528;48.086;16.282;2023-02-14T17:51:23;7.10;;;6.50;;
12921;SDS011;6528;48.086;16.282;2023-02-14T17:53:50;6.97;;;6.37;;
12921;SDS011;6528;48.086;16.282;2023-02-14T17:56:21;6.43;;;5.93;;
12921;SDS011;6528;48.086;16.282;2023-02-14T17:58:49;5.53;;;5.07;;